Time;durP1;ratioP1;P1;durP2;ratioP2;P2;SDS_P1;SDS_P2;PMS_P1;PMS_P2;Temp;Humidity;BMP_temperature;BMP_pressure;BME280_temperature;BME280_humidity;BME280_pressure;Samples;Min_cycle;Max_cycle;Signal;HPM_P1;HPM_P2
2022/07/22 00:00:37;;;;;;;2.55;2.35;;;;;;;;;;12542435;28;20047;-80
2022/07/22 00:06:39;;;;;;;3.75;2.90;;;;;;;;;;12542316;28;20036;-76
2022/07/22 00:12:41;;;;;;;3.22;2.10;;;;;;;;;;12543742;28;20388;-76
2022/07/22 00:18:42;;;;;;;2.13;2.03;;;;;;;;;;12543863;28;20029;-79
2022/07/22 00:24:44;;;;;;;3.20;2.90;;;;;;;;;;12541823;28;20037;-79
2022/07/22 00:30:46;;;;;;;2.42;2.28;;;;;;;;;;12541881;28;20041;-79
2022/07/22 00:36:48;;;;;;;3.35;2.97;;;;;;;;;;12539962;28;20025;-76
2022/07/22 00:42:50;;;;;;;3.10;2.70;;;;;;;;;;12542275;28;20497;-76
2022/07/22 00:48:52;;;;;;;3.58;3.08;;;;;;;;;;12542198;28;20357;-80
2022/07/22 00:54:55;;;;;;;3.40;3.10;;;;;;;;;;12539595;28;20480;-76
2022/07/22 01:00:57;;;;;;;3.00;2.80;;;;;;;;;;12539589;28;20029;-79
2022/07/22 01:07:00;;;;;;;3.78;3.42;;;;;;;;;;12539483;28;20032;-80
2022/07/22 01:13:02;;;;;;;4.93;3.50;;;;;;;;;;12547932;28;20036;-80
2022/07/22 01:19:04;;;;;;;3.45;3.15;;;;;;;;;;12549056;28;20048;-76
2022/07/22 01:25:06;;;;;;;4.32;3.47;;;;;;;;;;12551246;28;20037;-76
2022/07/22 01:31:08;;;;;;;3.50;3.20;;;;;;;;;;12548066;28;20415;-76
2022/07/22 01:37:11;;;;;;;3.78;3.40;;;;;;;;;;12548129;28;20044;-76
2022/07/22 01:43:17;;;;;;;4.10;3.65;;;;;;;;;;12551073;28;20060;-76
2022/07/22 01:49:21;;;;;;;3.85;3.55;;;;;;;;;;12530999;28;20117;-76
2022/07/22 01:55:22;;;;;;;4.35;3.70;;;;;;;;;;12549656;28;20037;-79
2022/07/22 02:01:24;;;;;;;4.70;3.58;;;;;;;;;;12546379;28;20515;-78
2022/07/22 02:07:26;;;;;;;3.97;3.58;;;;;;;;;;12548835;28;20087;-79
2022/07/22 02:13:28;;;;;;;4.25;3.80;;;;;;;;;;12546598;28;20037;-76
2022/07/22 02:19:29;;;;;;;3.92;3.63;;;;;;;;;;12546238;28;20060;-79
2022/07/22 02:25:31;;;;;;;5.65;3.55;;;;;;;;;;12546500;28;20488;-79
2022/07/22 02:31:33;;;;;;;3.78;3.42;;;;;;;;;;12546314;28;20037;-79
2022/07/22 02:37:37;;;;;;;4.43;3.20;;;;;;;;;;12547590;28;20045;-74
2022/07/22 02:43:39;;;;;;;4.65;4.03;;;;;;;;;;12545342;28;20056;-79
2022/07/22 02:49:41;;;;;;;4.93;4.38;;;;;;;;;;12544238;28;20048;-79
2022/07/22 02:55:43;;;;;;;4.35;3.90;;;;;;;;;;12543909;28;20036;-79
2022/07/22 03:01:45;;;;;;;7.47;4.50;;;;;;;;;;12545861;28;20044;-75
2022/07/22 03:07:48;;;;;;;4.55;4.07;;;;;;;;;;12544402;28;20041;-76
2022/07/22 03:13:50;;;;;;;4.43;4.03;;;;;;;;;;12547426;28;20032;-75
2022/07/22 03:19:52;;;;;;;3.80;3.50;;;;;;;;;;12542573;28;20040;-76
2022/07/22 03:25:56;;;;;;;4.97;4.13;;;;;;;;;;12546966;28;20048;-78
2022/07/22 03:31:58;;;;;;;5.28;4.25;;;;;;;;;;12542912;28;20044;-78
2022/07/22 03:38:17;;;;;;;5.35;3.92;;;;;;;;;;12544145;28;20033;-79
2022/07/22 03:44:21;;;;;;;4.03;3.63;;;;;;;;;;12543371;28;20045;-78
2022/07/22 03:50:24;;;;;;;6.32;4.45;;;;;;;;;;12542796;28;20044;-79
2022/07/22 03:56:26;;;;;;;4.38;3.97;;;;;;;;;;12541642;28;20104;-76
2022/07/22 04:02:27;;;;;;;4.45;4.05;;;;;;;;;;12546590;28;20400;-76
2022/07/22 04:08:30;;;;;;;4.60;4.20;;;;;;;;;;12527544;28;20045;-80
2022/07/22 04:14:32;;;;;;;4.80;4.40;;;;;;;;;;12541682;28;20033;-80
2022/07/22 04:20:34;;;;;;;4.22;3.85;;;;;;;;;;12539945;28;20400;-77
2022/07/22 04:26:56;;;;;;;4.28;3.95;;;;;;;;;;12544519;28;20040;-80
2022/07/22 04:32:59;;;;;;;4.88;4.47;;;;;;;;;;12541420;28;20055;-76
2022/07/22 04:39:01;;;;;;;5.15;4.55;;;;;;;;;;12540138;28;20032;-81
2022/07/22 04:45:03;;;;;;;5.40;4.90;;;;;;;;;;12543970;28;20025;-77
2022/07/22 04:51:05;;;;;;;6.88;4.38;;;;;;;;;;12552808;28;20067;-77
2022/07/22 04:57:09;;;;;;;5.28;4.15;;;;;;;;;;12549510;28;20037;-80
2022/07/22 05:03:10;;;;;;;5.25;4.30;;;;;;;;;;12550636;28;20032;-80
2022/07/22 05:09:12;;;;;;;3.78;3.45;;;;;;;;;;12548588;28;20049;-76
2022/07/22 05:15:14;;;;;;;4.88;3.83;;;;;;;;;;12550021;28;20040;-76
2022/07/22 05:21:16;;;;;;;5.85;4.75;;;;;;;;;;12551395;28;20033;-76
2022/07/22 05:27:18;;;;;;;5.53;3.97;;;;;;;;;;12550011;28;20044;-80
2022/07/22 05:33:20;;;;;;;5.28;4.63;;;;;;;;;;12547995;28;20039;-76
2022/07/22 05:39:39;;;;;;;5.10;4.07;;;;;;;;;;12536180;28;20060;-79
2022/07/22 05:45:40;;;;;;;4.68;4.20;;;;;;;;;;12550523;28;20037;-79
2022/07/22 05:51:43;;;;;;;4.03;3.72;;;;;;;;;;12547193;28;20041;-80
2022/07/22 05:57:45;;;;;;;4.45;3.95;;;;;;;;;;12545550;28;20225;-75
2022/07/22 06:03:46;;;;;;;3.75;3.45;;;;;;;;;;12549161;28;20373;-80
2022/07/22 06:09:49;;;;;;;3.85;3.55;;;;;;;;;;12546526;28;20049;-76
2022/07/22 06:15:51;;;;;;;3.00;2.55;;;;;;;;;;12531745;28;20072;-76
2022/07/22 06:21:53;;;;;;;3.15;2.88;;;;;;;;;;12545458;28;20040;-76
2022/07/22 06:27:55;;;;;;;3.53;3.22;;;;;;;;;;12545668;28;20041;-80
2022/07/22 06:33:58;;;;;;;3.65;3.35;;;;;;;;;;12528266;28;20041;-80
2022/07/22 06:40:09;;;;;;;4.20;3.90;;;;;;;;;;12544070;28;20048;-75
2022/07/22 06:46:27;;;;;;;4.00;3.67;;;;;;;;;;12544403;28;20041;-79
2022/07/22 06:52:29;;;;;;;4.05;3.53;;;;;;;;;;12543581;28;20048;-80
2022/07/22 06:58:32;;;;;;;4.85;3.20;;;;;;;;;;12544725;28;20502;-76
2022/07/22 07:04:34;;;;;;;4.05;3.30;;;;;;;;;;12543496;28;20119;-79
2022/07/22 07:10:37;;;;;;;3.13;2.83;;;;;;;;;;12542242;28;20045;-76
2022/07/22 07:16:44;;;;;;;3.78;3.00;;;;;;;;;;12543176;28;20037;-80
2022/07/22 07:22:47;;;;;;;2.15;2.03;;;;;;;;;;12542358;28;20036;-77
2022/07/22 07:28:49;;;;;;;3.40;2.60;;;;;;;;;;12525698;28;20037;-81
2022/07/22 07:35:07;;;;;;;5.18;2.97;;;;;;;;;;12541949;28;20411;-81
2022/07/22 07:41:09;;;;;;;2.70;2.50;;;;;;;;;;12543430;28;20252;-80
2022/07/22 07:47:17;;;;;;;2.20;2.05;;;;;;;;;;12542688;28;20029;-80
2022/07/22 07:53:19;;;;;;;5.03;3.15;;;;;;;;;;12540915;28;20396;-77
2022/07/22 07:59:22;;;;;;;2.47;2.28;;;;;;;;;;12541624;28;20057;-77
2022/07/22 08:05:24;;;;;;;2.90;2.65;;;;;;;;;;12523999;28;20037;-76
2022/07/22 08:11:26;;;;;;;4.18;3.63;;;;;;;;;;12540432;28;20519;-80
2022/07/22 08:17:48;;;;;;;6.50;3.38;;;;;;;;;;12540536;28;20036;-80
2022/07/22 08:23:50;;;;;;;7.32;4.07;;;;;;;;;;12542250;28;20048;-79
2022/07/22 08:29:53;;;;;;;4.57;3.60;;;;;;;;;;12524185;28;20037;-78
2022/07/22 08:35:55;;;;;;;6.70;3.80;;;;;;;;;;12543605;28;20032;-80
2022/07/22 08:41:57;;;;;;;3.45;3.15;;;;;;;;;;12543544;28;20053;-80
2022/07/22 08:48:02;;;;;;;2.60;2.50;;;;;;;;;;12540414;28;20037;-77
2022/07/22 08:54:22;;;;;;;4.30;2.70;;;;;;;;;;12540932;28;20037;-80
2022/07/22 09:00:24;;;;;;;3.65;2.33;;;;;;;;;;12523156;28;20037;-81
2022/07/22 09:06:33;;;;;;;2.53;2.33;;;;;;;;;;12541258;28;20033;-80
2022/07/22 09:12:35;;;;;;;5.53;2.53;;;;;;;;;;12524060;28;20056;-81
2022/07/22 09:18:57;;;;;;;3.63;3.33;;;;;;;;;;12540136;28;20025;-80
2022/07/22 09:24:59;;;;;;;3.30;3.00;;;;;;;;;;12539828;28;20033;-77
2022/07/22 09:31:07;;;;;;;3.05;2.30;;;;;;;;;;12544210;28;20048;-77
2022/07/22 09:37:14;;;;;;;3.28;2.70;;;;;;;;;;12547231;28;20029;-77
2022/07/22 09:43:18;;;;;;;3.70;2.78;;;;;;;;;;12546502;28;20049;-77
2022/07/22 09:49:33;;;;;;;3.45;2.83;;;;;;;;;;12550855;28;20481;-81
2022/07/22 09:55:56;;;;;;;2.90;2.70;;;;;;;;;;12546740;28;20037;-77
2022/07/22 10:01:59;;;;;;;2.20;2.00;;;;;;;;;;12530263;28;20051;-80
2022/07/22 10:08:02;;;;;;;2.70;2.03;;;;;;;;;;12548057;28;20488;-80
2022/07/22 10:14:04;;;;;;;2.65;2.45;;;;;;;;;;12546123;28;20040;-76
2022/07/22 10:20:06;;;;;;;2.45;1.95;;;;;;;;;;12545404;28;20163;-80
2022/07/22 10:26:08;;;;;;;1.98;1.88;;;;;;;;;;12544822;28;20036;-80
2022/07/22 10:32:30;;;;;;;1.75;1.65;;;;;;;;;;12545329;28;20052;-76
2022/07/22 10:38:32;;;;;;;2.00;1.90;;;;;;;;;;12546979;28;20033;-78
2022/07/22 10:44:49;;;;;;;2.58;2.38;;;;;;;;;;12545939;28;20055;-77
2022/07/22 10:50:54;;;;;;;2.00;1.38;;;;;;;;;;12545053;28;20040;-80
2022/07/22 10:56:56;;;;;;;1.73;1.63;;;;;;;;;;12544132;28;20048;-80
2022/07/22 11:02:58;;;;;;;2.20;1.83;;;;;;;;;;12548994;28;20036;-80
2022/07/22 11:09:01;;;;;;;2.20;1.27;;;;;;;;;;12530360;28;20049;-81
2022/07/22 11:15:06;;;;;;;2.95;1.58;;;;;;;;;;12544523;28;20028;-80
2022/07/22 11:21:08;;;;;;;1.95;1.80;;;;;;;;;;12544760;28;20040;-80
2022/07/22 11:27:13;;;;;;;1.48;1.35;;;;;;;;;;12543591;28;20025;-81
2022/07/22 11:33:16;;;;;;;2.65;1.48;;;;;;;;;;12543673;28;20451;-78
2022/07/22 11:39:22;;;;;;;2.55;1.20;;;;;;;;;;12542859;28;20041;-80
2022/07/22 11:45:24;;;;;;;1.42;1.30;;;;;;;;;;12543927;28;20040;-80
2022/07/22 11:51:31;;;;;;;1.85;1.38;;;;;;;;;;12547190;28;20448;-77
2022/07/22 11:57:32;;;;;;;1.65;1.55;;;;;;;;;;12544415;28;20428;-80
2022/07/22 12:03:36;;;;;;;1.75;1.65;;;;;;;;;;12540380;28;20024;-79
2022/07/22 12:09:38;;;;;;;1.80;1.70;;;;;;;;;;12539903;28;20049;-79
2022/07/22 12:15:40;;;;;;;2.25;1.67;;;;;;;;;;12541082;28;20037;-80
2022/07/22 12:21:51;;;;;;;1.88;1.70;;;;;;;;;;12524911;28;20028;-76
2022/07/22 12:28:00;;;;;;;1.67;1.58;;;;;;;;;;12543323;28;20036;-76
2022/07/22 12:34:02;;;;;;;4.77;3.03;;;;;;;;;;12542096;28;20033;-80
2022/07/22 12:40:06;;;;;;;3.13;2.47;;;;;;;;;;12523766;28;20049;-76
2022/07/22 12:46:07;;;;;;;2.80;2.60;;;;;;;;;;12540691;28;20021;-78
2022/07/22 12:52:11;;;;;;;2.47;2.28;;;;;;;;;;12544604;28;20041;-76
2022/07/22 12:58:13;;;;;;;2.70;2.20;;;;;;;;;;12545252;28;20033;-79
2022/07/22 13:04:15;;;;;;;2.13;2.00;;;;;;;;;;12543688;28;20040;-81
2022/07/22 13:10:17;;;;;;;2.85;2.38;;;;;;;;;;12553444;28;20400;-77
2022/07/22 13:16:19;;;;;;;2.85;1.77;;;;;;;;;;12551511;28;20059;-76
2022/07/22 13:22:21;;;;;;;2.42;1.90;;;;;;;;;;12552717;28;20028;-76
2022/07/22 13:28:23;;;;;;;2.17;1.98;;;;;;;;;;12552912;28;20048;-76
2022/07/22 13:34:25;;;;;;;2.15;2.05;;;;;;;;;;12553374;28;20042;-79
2022/07/22 13:40:26;;;;;;;1.85;1.70;;;;;;;;;;12535985;28;20045;-79
2022/07/22 13:46:28;;;;;;;2.22;1.90;;;;;;;;;;12552600;28;20048;-77
2022/07/22 13:52:30;;;;;;;2.30;2.10;;;;;;;;;;12551306;28;20497;-77
2022/07/22 13:58:32;;;;;;;2.78;1.73;;;;;;;;;;12553466;28;20033;-80
2022/07/22 14:04:34;;;;;;;3.95;1.80;;;;;;;;;;12549721;28;20040;-79
2022/07/22 14:10:36;;;;;;;3.35;2.28;;;;;;;;;;12551813;28;20060;-80
2022/07/22 14:16:37;;;;;;;2.60;2.40;;;;;;;;;;12550220;28;20040;-77
2022/07/22 14:22:39;;;;;;;2.20;2.10;;;;;;;;;;12552336;28;20033;-77
2022/07/22 14:28:41;;;;;;;2.22;2.03;;;;;;;;;;12549886;28;20103;-77
2022/07/22 14:34:42;;;;;;;1.80;1.70;;;;;;;;;;12550075;28;20036;-80
2022/07/22 14:40:44;;;;;;;2.65;2.30;;;;;;;;;;12548808;28;20049;-80
2022/07/22 14:46:46;;;;;;;2.03;1.90;;;;;;;;;;12548449;28;20043;-80
2022/07/22 14:52:48;;;;;;;2.00;1.90;;;;;;;;;;12548011;28;20389;-80
2022/07/22 14:58:50;;;;;;;1.70;1.60;;;;;;;;;;12551215;28;20033;-80
2022/07/22 15:04:52;;;;;;;2.22;2.05;;;;;;;;;;12545111;28;20524;-78
2022/07/22 15:10:53;;;;;;;2.00;1.90;;;;;;;;;;12546848;28;20087;-80
2022/07/22 15:16:55;;;;;;;2.00;1.88;;;;;;;;;;12546075;28;20025;-77
2022/07/22 15:22:57;;;;;;;2.42;2.33;;;;;;;;;;12547149;28;20032;-80
2022/07/22 15:28:59;;;;;;;2.05;1.95;;;;;;;;;;12543958;28;20412;-77
2022/07/22 15:35:00;;;;;;;3.17;2.97;;;;;;;;;;12548252;28;20037;-77
2022/07/22 15:41:03;;;;;;;4.10;3.80;;;;;;;;;;12542497;28;20052;-80
2022/07/22 15:47:05;;;;;;;4.38;4.07;;;;;;;;;;12544505;28;20029;-78
2022/07/22 15:53:06;;;;;;;4.18;3.78;;;;;;;;;;12546299;28;20091;-78
2022/07/22 16:05:29;;;;;;;5.78;5.28;;;;;;;;;;12548059;28;20036;-77
2022/07/22 16:11:30;;;;;;;5.53;5.03;;;;;;;;;;12548116;28;20053;-77
2022/07/22 16:17:32;;;;;;;5.63;5.13;;;;;;;;;;12545258;28;20036;-80
2022/07/22 16:23:34;;;;;;;4.90;4.55;;;;;;;;;;12550049;28;20393;-78
2022/07/22 16:29:36;;;;;;;5.82;5.32;;;;;;;;;;12544054;28;20048;-78
2022/07/22 16:35:37;;;;;;;5.55;5.05;;;;;;;;;;12544402;28;20032;-78
2022/07/22 16:41:39;;;;;;;5.88;5.38;;;;;;;;;;12547644;28;20053;-78
2022/07/22 16:47:41;;;;;;;6.03;5.63;;;;;;;;;;12553642;28;20045;-77
2022/07/22 16:53:43;;;;;;;5.53;5.18;;;;;;;;;;12554466;28;20052;-79
2022/07/22 16:59:45;;;;;;;6.10;5.60;;;;;;;;;;12554609;28;20047;-80
2022/07/22 17:05:46;;;;;;;6.07;5.47;;;;;;;;;;12552939;28;20037;-77
2022/07/22 17:11:48;;;;;;;5.40;4.93;;;;;;;;;;12557781;28;20508;-79
2022/07/22 17:17:50;;;;;;;5.78;5.38;;;;;;;;;;12554848;28;20037;-76
2022/07/22 17:23:52;;;;;;;6.35;5.80;;;;;;;;;;12554572;28;20345;-81
2022/07/22 17:29:55;;;;;;;7.40;6.63;;;;;;;;;;12550432;28;20044;-79
2022/07/22 17:35:56;;;;;;;6.10;5.70;;;;;;;;;;12551428;28;20037;-76
2022/07/22 17:41:58;;;;;;;6.05;5.65;;;;;;;;;;12551567;28;20500;-80
2022/07/22 17:48:00;;;;;;;6.18;5.57;;;;;;;;;;12553098;28;20048;-77
2022/07/22 17:54:02;;;;;;;6.05;5.47;;;;;;;;;;12552560;28;20037;-77
2022/07/22 18:00:04;;;;;;;5.38;4.97;;;;;;;;;;12556308;28;20037;-80
2022/07/22 18:06:07;;;;;;;4.75;4.43;;;;;;;;;;12551761;28;20040;-77
2022/07/22 18:12:08;;;;;;;4.32;4.03;;;;;;;;;;12555776;28;20056;-77
2022/07/22 18:18:10;;;;;;;3.90;3.50;;;;;;;;;;12551825;28;20025;-77
2022/07/22 18:24:12;;;;;;;4.00;3.63;;;;;;;;;;12552665;28;20029;-81
2022/07/22 18:30:14;;;;;;;3.80;3.50;;;;;;;;;;12555610;28;20045;-80
2022/07/22 18:36:16;;;;;;;3.88;3.58;;;;;;;;;;12550146;28;20037;-77
2022/07/22 18:42:18;;;;;;;4.05;3.05;;;;;;;;;;12549047;28;20084;-81
2022/07/22 18:48:20;;;;;;;3.60;3.30;;;;;;;;;;12552694;28;20103;-78
2022/07/22 18:54:22;;;;;;;3.78;3.30;;;;;;;;;;12553058;28;20052;-80
2022/07/22 19:00:23;;;;;;;3.25;3.05;;;;;;;;;;12547529;28;20040;-81
2022/07/22 19:06:25;;;;;;;4.28;3.88;;;;;;;;;;12546508;28;20520;-81
2022/07/22 19:12:27;;;;;;;3.53;3.22;;;;;;;;;;12549723;28;20052;-81
2022/07/22 19:18:29;;;;;;;3.30;3.10;;;;;;;;;;12549965;28;20484;-76
2022/07/22 19:24:33;;;;;;;3.38;2.97;;;;;;;;;;12546080;28;20049;-80
2022/07/22 19:30:35;;;;;;;3.72;3.33;;;;;;;;;;12551555;28;20055;-80
2022/07/22 19:36:37;;;;;;;4.30;3.90;;;;;;;;;;12549642;28;20029;-81
2022/07/22 19:42:39;;;;;;;4.03;3.63;;;;;;;;;;12549699;28;20057;-77
2022/07/22 19:48:40;;;;;;;4.18;3.70;;;;;;;;;;12549242;28;20045;-80
2022/07/22 19:54:42;;;;;;;3.72;3.42;;;;;;;;;;12552498;28;20064;-77
2022/07/22 20:00:44;;;;;;;4.40;3.75;;;;;;;;;;12546212;28;20040;-80
2022/07/22 20:06:46;;;;;;;4.28;3.45;;;;;;;;;;12530504;28;20495;-81
2022/07/22 20:12:48;;;;;;;3.78;3.50;;;;;;;;;;12544631;28;20040;-76
2022/07/22 20:18:50;;;;;;;4.25;3.92;;;;;;;;;;12546201;28;20047;-76
2022/07/22 20:24:52;;;;;;;4.70;4.20;;;;;;;;;;12543980;28;20040;-77
2022/07/22 20:30:53;;;;;;;4.32;3.97;;;;;;;;;;12547152;28;20045;-76
2022/07/22 20:36:55;;;;;;;3.78;3.47;;;;;;;;;;12546310;28;20044;-80
2022/07/22 20:42:57;;;;;;;4.68;4.28;;;;;;;;;;12549623;28;20053;-80
2022/07/22 20:48:59;;;;;;;5.07;4.68;;;;;;;;;;12544406;28;20041;-80
2022/07/22 20:55:01;;;;;;;5.25;4.07;;;;;;;;;;12546933;28;20511;-80
2022/07/22 21:01:02;;;;;;;5.05;4.65;;;;;;;;;;12550016;28;20052;-78
2022/07/22 21:07:04;;;;;;;5.45;4.95;;;;;;;;;;12547816;28;20044;-77
2022/07/22 21:13:06;;;;;;;6.28;5.00;;;;;;;;;;12545711;28;20049;-77
2022/07/22 21:19:08;;;;;;;4.65;4.28;;;;;;;;;;12529815;28;20033;-78
2022/07/22 21:25:10;;;;;;;4.78;4.35;;;;;;;;;;12544950;28;20036;-80
2022/07/22 21:31:11;;;;;;;5.20;4.78;;;;;;;;;;12558407;28;20045;-77
2022/07/22 21:37:13;;;;;;;5.65;5.15;;;;;;;;;;12553545;28;20029;-80
2022/07/22 21:43:15;;;;;;;5.70;5.03;;;;;;;;;;12535020;28;20049;-79
2022/07/22 21:49:16;;;;;;;5.40;4.95;;;;;;;;;;12554570;28;20052;-77
2022/07/22 21:55:18;;;;;;;5.47;4.97;;;;;;;;;;12551316;28;20025;-81
2022/07/22 22:01:20;;;;;;;4.75;4.35;;;;;;;;;;12551431;28;20033;-80
2022/07/22 22:07:22;;;;;;;5.88;5.38;;;;;;;;;;12551587;28;20033;-80
2022/07/22 22:13:24;;;;;;;5.07;4.68;;;;;;;;;;12552587;28;20052;-77
2022/07/22 22:19:25;;;;;;;5.18;4.78;;;;;;;;;;12551095;28;20463;-82
2022/07/22 22:25:27;;;;;;;5.55;5.07;;;;;;;;;;12550459;28;20041;-78
2022/07/22 22:31:29;;;;;;;6.03;5.47;;;;;;;;;;12548974;28;20060;-78
2022/07/22 22:37:30;;;;;;;5.80;5.05;;;;;;;;;;12553961;28;20060;-78
2022/07/22 22:43:33;;;;;;;5.45;5.00;;;;;;;;;;12553380;28;20496;-75
2022/07/22 22:49:34;;;;;;;4.93;4.63;;;;;;;;;;12550662;28;20041;-77
2022/07/22 22:55:36;;;;;;;6.63;5.53;;;;;;;;;;12549094;28;20149;-77
2022/07/22 23:01:38;;;;;;;6.18;5.65;;;;;;;;;;12548738;28;20025;-81
2022/07/22 23:07:40;;;;;;;5.82;5.43;;;;;;;;;;12547632;28;20044;-77
2022/07/22 23:13:42;;;;;;;8.60;5.45;;;;;;;;;;12547648;28;20075;-81
2022/07/22 23:19:46;;;;;;;5.60;5.10;;;;;;;;;;12547110;28;20033;-80
2022/07/22 23:25:48;;;;;;;6.18;5.68;;;;;;;;;;12548569;28;20040;-77
2022/07/22 23:31:50;;;;;;;6.45;5.85;;;;;;;;;;12552447;28;20048;-77
2022/07/22 23:37:52;;;;;;;5.75;5.28;;;;;;;;;;12548023;28;20117;-81
2022/07/22 23:43:53;;;;;;;5.70;5.20;;;;;;;;;;12546154;28;20063;-76
2022/07/22 23:49:55;;;;;;;5.50;5.00;;;;;;;;;;12545832;28;20045;-76
2022/07/22 23:55:57;;;;;;;6.53;5.93;;;;;;;;;;12548650;28;20041;-76
